Knighton, United Kingdom
Current Conditions -  °F | °C
As of 4:50 PM on Thursday 27 Nov 2014 (Local Time) from EGOS Reporting Station
Light Fog Light Fog  
Wind Chill: 40°   Ceiling: Unl
Heat Index: 43°   Visibility: 4mi
Dew Point: 43°   Wind: 5mph
Humidity: 100%   Direction: 90°E
Pressure: 29.53"   Gusts: NA
Location:  52.35°N, 3.05°W
Report Text: EGOS 271650Z 09004KT 7000 MIFG FEW025 06/06 Q1000 WHT
Loading
Personal Weather Stations






























Interactive Weather Map New forecast layout! Learn more

10-Day Weather Forecast

Advertisements
Track Severe Weather on mobile